createdAt,value
2022-11-10T07:52:26.554Z,11.23
2022-11-10T07:55:54.026Z,14.43
2022-11-10T07:59:21.462Z,14.98
2022-11-10T08:02:49.003Z,10.43
2022-11-10T08:06:16.586Z,14.73
2022-11-10T08:09:44.195Z,10.63
2022-11-10T08:13:11.664Z,9.90
2022-11-10T08:16:39.148Z,10.93
2022-11-10T08:20:06.638Z,15.17
2022-11-10T08:23:34.146Z,12.85
2022-11-10T08:27:01.584Z,12.27
2022-11-10T08:30:29.121Z,9.30
2022-11-10T08:33:56.625Z,11.13
2022-11-10T08:37:24.075Z,13.30
2022-11-10T08:40:51.535Z,10.93
2022-11-10T08:44:21.012Z,16.33
2022-11-10T08:47:48.789Z,10.02
2022-11-10T08:51:16.255Z,11.77
2022-11-10T08:54:43.694Z,11.05
2022-11-10T08:58:11.146Z,8.90
2022-11-10T09:01:38.677Z,13.20
2022-11-10T09:05:06.132Z,19.03
2022-11-10T09:08:33.610Z,13.20
2022-11-10T09:12:01.058Z,10.00
2022-11-10T09:15:28.534Z,13.30
2022-11-10T09:18:56.027Z,8.85
2022-11-10T09:22:23.468Z,12.75
2022-11-10T09:25:50.931Z,8.07
2022-11-10T09:29:18.409Z,15.15
2022-11-10T09:32:45.841Z,11.35
2022-11-10T09:36:13.295Z,6.13
2022-11-10T09:39:40.758Z,7.03
2022-11-10T09:43:08.248Z,3.20
2022-11-10T09:46:35.744Z,7.47
2022-11-10T09:50:03.208Z,8.77
2022-11-10T09:53:30.670Z,9.52
2022-11-10T09:56:58.142Z,8.88
2022-11-10T10:00:25.662Z,13.32
2022-11-10T10:03:53.253Z,10.03
2022-11-10T10:07:20.804Z,12.07
2022-11-10T10:10:48.272Z,13.23
2022-11-10T10:14:15.755Z,9.65
2022-11-10T10:17:43.217Z,9.88
2022-11-10T10:21:10.696Z,12.43
2022-11-10T10:24:38.162Z,10.53
2022-11-10T10:28:05.663Z,8.23
2022-11-10T10:31:33.099Z,7.87
2022-11-10T10:35:00.570Z,8.70
2022-11-10T10:38:27.989Z,11.38
2022-11-10T10:41:55.482Z,8.38
2022-11-10T10:45:23.000Z,14.02
2022-11-10T10:48:53.871Z,5.77
2022-11-10T10:52:30.261Z,7.03
2022-11-10T10:55:57.728Z,7.35
2022-11-10T10:59:25.183Z,6.13
2022-11-10T11:02:52.651Z,5.15
2022-11-10T11:06:20.118Z,8.35
2022-11-10T11:09:47.572Z,5.80
2022-11-10T11:13:15.044Z,9.40
2022-11-10T11:16:42.516Z,7.10
2022-11-10T11:20:09.982Z,6.72
2022-11-10T11:23:37.448Z,9.88
2022-11-10T11:27:04.920Z,7.07
2022-11-10T11:30:32.367Z,7.07
2022-11-10T11:33:59.890Z,7.00
2022-11-10T11:37:27.389Z,11.38
2022-11-10T11:40:54.861Z,8.03
2022-11-10T11:44:22.353Z,7.13
2022-11-10T11:47:49.809Z,5.10
2022-11-10T11:51:19.267Z,8.32
2022-11-10T11:54:46.745Z,5.53
2022-11-10T11:58:14.182Z,3.23
2022-11-10T12:01:41.643Z,9.45
2022-11-10T12:05:09.141Z,7.45
2022-11-10T12:08:36.588Z,8.37
2022-11-10T12:12:04.053Z,7.07
2022-11-10T12:15:31.515Z,3.33
2022-11-10T12:18:58.965Z,3.75
2022-11-10T12:22:26.426Z,5.43
2022-11-10T12:25:53.888Z,4.30
2022-11-10T12:29:22.767Z,6.45
2022-11-10T12:32:50.427Z,5.22
2022-11-10T12:36:17.876Z,5.20
2022-11-10T12:39:45.346Z,2.45
2022-11-10T12:43:12.807Z,5.82
2022-11-10T12:46:40.249Z,8.63
2022-11-10T12:50:07.706Z,6.90
2022-11-10T12:53:35.219Z,3.17
2022-11-10T12:57:02.666Z,6.83
2022-11-10T13:00:30.248Z,6.10
2022-11-10T13:03:57.872Z,4.28
2022-11-10T13:07:25.350Z,5.65
2022-11-10T13:10:52.852Z,9.10
2022-11-10T13:14:20.326Z,5.67
2022-11-10T13:17:47.775Z,7.47
2022-11-10T13:21:15.243Z,7.22
2022-11-10T13:24:42.836Z,8.73
2022-11-10T13:28:10.339Z,6.23
2022-11-10T13:31:37.824Z,4.53
2022-11-10T13:35:05.292Z,3.30
2022-11-10T13:38:32.757Z,6.78
2022-11-10T13:42:00.221Z,8.63
2022-11-10T13:45:27.730Z,7.27
2022-11-10T13:48:55.164Z,5.05
2022-11-10T13:52:22.625Z,6.65
2022-11-10T13:55:50.102Z,6.60
2022-11-10T13:59:17.547Z,7.20
2022-11-10T14:02:45.145Z,8.48
2022-11-10T14:06:12.631Z,7.20
2022-11-10T14:09:40.115Z,5.13
2022-11-10T14:13:07.618Z,5.22
2022-11-10T14:16:35.135Z,3.10
2022-11-10T14:20:02.599Z,2.63
2022-11-10T14:23:30.059Z,2.75
2022-11-10T14:26:57.494Z,3.93
2022-11-10T14:30:25.110Z,5.22
2022-11-10T14:33:52.592Z,3.85
2022-11-10T14:37:20.065Z,3.08
2022-11-10T14:40:47.507Z,4.18
2022-11-10T14:44:14.962Z,4.38
2022-11-10T14:47:42.447Z,5.65
2022-11-10T14:51:09.898Z,6.03
2022-11-10T14:54:37.372Z,6.40
2022-11-10T14:58:04.818Z,6.10
2022-11-10T15:01:32.286Z,11.85
2022-11-10T15:04:59.778Z,6.70
2022-11-10T15:08:27.263Z,3.50
2022-11-10T15:11:54.724Z,7.85
2022-11-10T15:15:22.201Z,4.70
2022-11-10T15:18:49.639Z,5.95
2022-11-10T15:22:17.102Z,4.60
2022-11-10T15:25:48.040Z,3.17
2022-11-10T15:29:17.999Z,4.38
2022-11-10T15:32:45.481Z,5.10
2022-11-10T15:36:12.929Z,4.78
2022-11-10T15:39:40.497Z,7.28
2022-11-10T15:43:08.012Z,3.90
2022-11-10T15:46:35.479Z,4.80
2022-11-10T15:50:03.166Z,7.75
